Terminal Aerodrome Forecast
Issued by NWS Jacksonville, FL

Home | Current Version | Previous Version | Text Only | Print | Product List | Glossary On
Versions: 1 2 3 4 5 6 7 8 9 10 11 12 13 14 15 16 17
000
FTUS42 KJAX 311700
TAFSSI
TAF
KSSI 311722Z 3118/0118 33009KT P6SM SCT040
     FM010000 27006KT P6SM SKC
     FM010800 29014G24KT P6SM SCT035
     FM011400 30025G35KT P6SM SCT050=

USA.gov is the U.S. government's official web portal to all federal, state and local government web resources and services.